Time;durP1;ratioP1;P1;durP2;ratioP2;P2;SDS_P1;SDS_P2;PMS_P1;PMS_P2;Temp;Humidity;BMP_temperature;BMP_pressure;BME280_temperature;BME280_humidity;BME280_pressure;Samples;Min_cycle;Max_cycle;Signal;HPM_P1;HPM_P2
2021/04/22 00:00:11;;;;;;;;;;;6.70;99.90;;;;;;4997151;28;19922;-67
2021/04/22 00:02:38;;;;;;;;;;;6.80;99.90;;;;;;4996341;28;19928;-66
2021/04/22 00:05:11;;;;;;;;;;;6.80;99.90;;;;;;4996615;28;19922;-66
2021/04/22 00:07:39;;;;;;;;;;;6.70;99.90;;;;;;4998254;28;19922;-68
2021/04/22 00:10:08;;;;;;;;;;;6.70;99.90;;;;;;4998253;28;19964;-67
2021/04/22 00:12:36;;;;;;;;;;;6.70;99.90;;;;;;4981227;28;19926;-66
2021/04/22 00:15:05;;;;;;;;;;;6.70;99.90;;;;;;4999375;28;19928;-66
2021/04/22 00:17:33;;;;;;;;;;;6.70;99.90;;;;;;4999807;28;19929;-70
2021/04/22 00:20:00;;;;;;;;;;;6.70;99.90;;;;;;4999488;28;20445;-66
2021/04/22 00:22:28;;;;;;;;;;;6.70;99.90;;;;;;4999045;28;19921;-68
2021/04/22 00:24:55;;;;;;;;;;;6.70;99.90;;;;;;4999064;28;19922;-66
2021/04/22 00:27:22;;;;;;;;;;;6.70;99.90;;;;;;4997622;28;19956;-69
2021/04/22 00:30:14;;;;;;;;;;;6.70;99.90;;;;;;4998789;28;20297;-66
2021/04/22 00:32:42;;;;;;;;;;;6.70;99.90;;;;;;4998930;28;20337;-66
2021/04/22 00:35:10;;;;;;;;;;;6.60;99.90;;;;;;4998800;28;20012;-68
2021/04/22 00:37:38;;;;;;;;;;;6.60;99.90;;;;;;4998386;28;19925;-67
2021/04/22 00:40:07;;;;;;;;;;;6.60;99.90;;;;;;4998448;28;19921;-66
2021/04/22 00:42:34;;;;;;;;;;;6.50;99.90;;;;;;4980358;28;19922;-66
2021/04/22 00:45:01;;;;;;;;;;;6.40;99.90;;;;;;4980242;28;19925;-66
2021/04/22 00:47:29;;;;;;;;;;;6.40;99.90;;;;;;4997672;28;20617;-66
2021/04/22 00:49:59;;;;;;;;;;;6.40;99.90;;;;;;4996850;28;19952;-67
2021/04/22 00:52:26;;;;;;;;;;;6.40;99.90;;;;;;4998346;28;19928;-66
2021/04/22 00:54:54;;;;;;;;;;;6.30;99.90;;;;;;4998070;28;20380;-68
2021/04/22 00:57:25;;;;;;;;;;;6.30;99.90;;;;;;4998034;28;19922;-66
2021/04/22 00:59:53;;;;;;;;;;;6.30;99.90;;;;;;4997465;28;19929;-66
2021/04/22 01:02:20;;;;;;;;;;;6.30;99.90;;;;;;4996359;28;19928;-68
2021/04/22 01:04:48;;;;;;;;;;;6.30;99.90;;;;;;4997041;28;19925;-67
2021/04/22 01:07:18;;;;;;;;;;;6.30;99.90;;;;;;4997983;28;19922;-67
2021/04/22 01:09:45;;;;;;;;;;;6.30;99.90;;;;;;4979752;28;20389;-67
2021/04/22 01:12:13;;;;;;;;;;;6.30;99.90;;;;;;4996649;28;19922;-68
2021/04/22 01:14:40;;;;;;;;;;;6.30;99.90;;;;;;4997074;28;19969;-67
2021/04/22 01:17:07;;;;;;;;;;;6.20;99.90;;;;;;4996913;28;19922;-67
2021/04/22 01:19:36;;;;;;;;;;;6.20;99.90;;;;;;4998962;28;19929;-66
2021/04/22 01:22:04;;;;;;;;;;;6.20;99.90;;;;;;4997023;28;19957;-67
2021/04/22 01:24:31;;;;;;;;;;;6.30;99.90;;;;;;4998250;28;19928;-66
2021/04/22 01:26:59;;;;;;;;;;;6.20;99.90;;;;;;4998210;28;19953;-66
2021/04/22 01:29:26;;;;;;;;;;;6.20;99.90;;;;;;4998724;28;20297;-66
2021/04/22 01:31:54;;;;;;;;;;;6.10;99.90;;;;;;4997511;28;19922;-66
2021/04/22 01:34:22;;;;;;;;;;;6.10;99.90;;;;;;4998286;28;20459;-66
2021/04/22 01:36:50;;;;;;;;;;;6.00;99.90;;;;;;4998354;28;19922;-66
2021/04/22 01:39:18;;;;;;;;;;;6.00;99.90;;;;;;4965472;28;19925;-67
2021/04/22 01:41:45;;;;;;;;;;;6.00;99.90;;;;;;4997152;28;20289;-67
2021/04/22 01:44:12;;;;;;;;;;;6.10;99.90;;;;;;4998932;28;20281;-66
2021/04/22 01:46:40;;;;;;;;;;;6.10;99.90;;;;;;4997541;28;20396;-67
2021/04/22 01:49:07;;;;;;;;;;;6.10;99.90;;;;;;4999852;28;19921;-66
2021/04/22 01:51:34;;;;;;;;;;;6.10;99.90;;;;;;4998616;28;20308;-66
2021/04/22 01:54:02;;;;;;;;;;;6.10;99.90;;;;;;4998680;28;19925;-68
2021/04/22 01:59:27;;;;;;;;;;;6.20;99.90;;;;;;5001557;28;19921;-66
2021/04/22 02:01:55;;;;;;;;;;;6.20;99.90;;;;;;5001686;28;19945;-69
2021/04/22 02:04:23;;;;;;;;;;;6.20;99.90;;;;;;4985667;28;19992;-67
2021/04/22 02:06:50;;;;;;;;;;;6.10;99.90;;;;;;5002184;28;19963;-67
2021/04/22 02:09:17;;;;;;;;;;;6.20;99.90;;;;;;4985095;28;19957;-66
2021/04/22 02:11:45;;;;;;;;;;;6.20;99.90;;;;;;4985569;28;19944;-66
2021/04/22 02:14:13;;;;;;;;;;;6.20;99.90;;;;;;5002265;28;19921;-69
2021/04/22 02:16:40;;;;;;;;;;;6.20;99.90;;;;;;5001746;28;20316;-66
2021/04/22 02:19:08;;;;;;;;;;;6.30;99.90;;;;;;4983535;28;19921;-67
2021/04/22 02:21:36;;;;;;;;;;;6.30;99.90;;;;;;4982580;28;20012;-67
2021/04/22 02:24:05;;;;;;;;;;;6.30;99.90;;;;;;4999851;28;20377;-67
2021/04/22 02:26:32;;;;;;;;;;;6.30;99.90;;;;;;5000198;28;19933;-67
2021/04/22 02:29:24;;;;;;;;;;;6.40;99.90;;;;;;5001260;28;20005;-69
2021/04/22 02:31:53;;;;;;;;;;;6.40;99.90;;;;;;4983840;28;19926;-66
2021/04/22 02:34:20;;;;;;;;;;;6.40;99.90;;;;;;5002183;28;19922;-66
2021/04/22 02:36:48;;;;;;;;;;;6.50;99.90;;;;;;5000787;28;19922;-66
2021/04/22 02:39:15;;;;;;;;;;;6.50;99.90;;;;;;4983215;28;19928;-66
2021/04/22 02:41:43;;;;;;;;;;;6.60;99.90;;;;;;5000526;28;19953;-67
2021/04/22 02:44:13;;;;;;;;;;;6.70;99.90;;;;;;4999758;28;19922;-67
2021/04/22 02:46:40;;;;;;;;;;;6.80;99.90;;;;;;4998636;28;20273;-67
2021/04/22 02:49:09;;;;;;;;;;;6.90;99.90;;;;;;4999041;28;20028;-66
2021/04/22 02:51:36;;;;;;;;;;;6.90;99.90;;;;;;5000407;28;19977;-67
2021/04/22 02:54:03;;;;;;;;;;;6.90;99.90;;;;;;5000407;28;19929;-69
2021/04/22 02:56:58;;;;;;;;;;;7.00;99.90;;;;;;5000497;28;19922;-67
2021/04/22 02:59:26;;;;;;;;;;;7.00;99.90;;;;;;4999270;28;20328;-66
2021/04/22 03:01:53;;;;;;;;;;;7.00;99.90;;;;;;4998456;28;20016;-67
2021/04/22 03:04:22;;;;;;;;;;;7.10;99.90;;;;;;4982148;28;19949;-66
2021/04/22 03:06:49;;;;;;;;;;;7.10;99.90;;;;;;4999140;28;19921;-66
2021/04/22 03:09:17;;;;;;;;;;;7.10;99.90;;;;;;4999716;28;20362;-66
2021/04/22 03:11:44;;;;;;;;;;;7.10;99.90;;;;;;4999803;28;19976;-67
2021/04/22 03:14:11;;;;;;;;;;;7.20;99.90;;;;;;4998977;28;19922;-66
2021/04/22 03:16:38;;;;;;;;;;;7.20;99.90;;;;;;4997851;28;19922;-66
2021/04/22 03:19:06;;;;;;;;;;;7.20;99.90;;;;;;4998666;28;19976;-66
2021/04/22 03:21:35;;;;;;;;;;;7.20;99.90;;;;;;4998441;28;19922;-66
2021/04/22 03:24:02;;;;;;;;;;;7.20;99.90;;;;;;4997387;28;19925;-67
2021/04/22 03:26:30;;;;;;;;;;;7.20;99.90;;;;;;4998906;28;19960;-66
2021/04/22 03:28:57;;;;;;;;;;;7.20;99.90;;;;;;4997574;28;19928;-67
2021/04/22 03:31:50;;;;;;;;;;;7.20;99.90;;;;;;4997679;28;20345;-70
2021/04/22 03:34:18;;;;;;;;;;;7.20;99.90;;;;;;4981357;28;19945;-66
2021/04/22 03:36:46;;;;;;;;;;;7.30;99.90;;;;;;4998377;28;19922;-67
2021/04/22 03:39:13;;;;;;;;;;;7.30;99.90;;;;;;4997679;28;19929;-67
2021/04/22 03:41:40;;;;;;;;;;;7.30;99.90;;;;;;4998450;28;19928;-67
2021/04/22 03:44:08;;;;;;;;;;;7.30;99.90;;;;;;4981593;28;19972;-66
2021/04/22 03:46:35;;;;;;;;;;;7.30;99.90;;;;;;4998521;28;19921;-69
2021/04/22 03:49:02;;;;;;;;;;;7.40;99.90;;;;;;4998673;28;20012;-66
2021/04/22 03:51:29;;;;;;;;;;;7.40;99.90;;;;;;4999332;28;20020;-66
2021/04/22 03:54:21;;;;;;;;;;;7.40;99.90;;;;;;4999154;28;19952;-65
2021/04/22 03:57:13;;;;;;;;;;;7.40;99.90;;;;;;4998824;28;20404;-71
2021/04/22 04:00:08;;;;;;;;;;;7.40;99.90;;;;;;4999067;28;19929;-66
2021/04/22 04:02:36;;;;;;;;;;;7.40;99.90;;;;;;4998150;28;20017;-65
2021/04/22 04:05:04;;;;;;;;;;;7.30;99.90;;;;;;4998893;28;20289;-66
2021/04/22 04:07:31;;;;;;;;;;;7.30;99.90;;;;;;4998657;28;19921;-67
2021/04/22 04:09:59;;;;;;;;;;;7.30;99.90;;;;;;4997724;28;19944;-68
2021/04/22 04:12:26;;;;;;;;;;;7.30;99.90;;;;;;4997671;28;19921;-69
2021/04/22 04:14:54;;;;;;;;;;;7.20;99.90;;;;;;4998241;28;20380;-66
2021/04/22 04:17:24;;;;;;;;;;;7.20;99.90;;;;;;4997649;28;20177;-66
2021/04/22 04:19:52;;;;;;;;;;;7.10;99.90;;;;;;4964611;28;19929;-66
2021/04/22 04:22:20;;;;;;;;;;;7.10;99.90;;;;;;4998312;28;19921;-67
2021/04/22 04:24:47;;;;;;;;;;;7.10;99.90;;;;;;4998994;28;19929;-66
2021/04/22 04:27:18;;;;;;;;;;;7.10;99.90;;;;;;4998238;28;19967;-66
2021/04/22 04:29:47;;;;;;;;;;;7.00;99.90;;;;;;4998035;28;19965;-66
2021/04/22 04:32:42;;;;;;;;;;;7.00;99.90;;;;;;4980399;28;19968;-66
2021/04/22 04:35:11;;;;;;;;;;;7.00;99.90;;;;;;4999124;28;20341;-67
2021/04/22 04:37:39;;;;;;;;;;;7.00;99.90;;;;;;4999422;28;19968;-67
2021/04/22 04:40:08;;;;;;;;;;;6.90;99.90;;;;;;5000091;28;20317;-67
2021/04/22 04:42:36;;;;;;;;;;;7.00;99.90;;;;;;4999334;28;19922;-67
2021/04/22 04:45:03;;;;;;;;;;;7.00;99.90;;;;;;4997477;28;19932;-67
2021/04/22 04:47:30;;;;;;;;;;;7.00;99.90;;;;;;4979519;28;20007;-67
2021/04/22 04:49:57;;;;;;;;;;;7.00;99.90;;;;;;4997413;28;19953;-66
2021/04/22 04:52:26;;;;;;;;;;;7.10;99.90;;;;;;4997374;28;19929;-66
2021/04/22 04:54:53;;;;;;;;;;;7.10;99.90;;;;;;4995762;28;19957;-70
2021/04/22 04:57:21;;;;;;;;;;;7.10;99.90;;;;;;4997034;28;19922;-67
2021/04/22 04:59:52;;;;;;;;;;;7.10;99.90;;;;;;4997155;28;20401;-67
2021/04/22 05:02:19;;;;;;;;;;;7.20;99.90;;;;;;4995773;28;20365;-66
2021/04/22 05:04:47;;;;;;;;;;;7.20;99.90;;;;;;4998098;28;20370;-66
2021/04/22 05:07:14;;;;;;;;;;;7.10;99.90;;;;;;4998883;28;19922;-66
2021/04/22 05:09:42;;;;;;;;;;;7.10;99.90;;;;;;4997823;28;20273;-66
2021/04/22 05:12:10;;;;;;;;;;;7.10;99.90;;;;;;4998309;28;20361;-72
2021/04/22 05:14:37;;;;;;;;;;;7.10;99.90;;;;;;4997405;28;19960;-66
2021/04/22 05:17:04;;;;;;;;;;;7.20;99.90;;;;;;4995996;28;20004;-67
2021/04/22 05:19:36;;;;;;;;;;;7.30;99.90;;;;;;4996516;28;20354;-67
2021/04/22 05:22:04;;;;;;;;;;;7.30;99.90;;;;;;4997029;28;19976;-67
2021/04/22 05:24:31;;;;;;;;;;;7.30;99.90;;;;;;4997387;28;19921;-67
2021/04/22 05:26:59;;;;;;;;;;;7.30;99.90;;;;;;4997530;28;19921;-66
2021/04/22 05:29:32;;;;;;;;;;;7.40;99.90;;;;;;4976529;28;19922;-67
2021/04/22 05:31:59;;;;;;;;;;;7.40;99.90;;;;;;4980617;28;20002;-67
2021/04/22 05:34:27;;;;;;;;;;;7.30;99.90;;;;;;4981741;28;20013;-70
2021/04/22 05:36:54;;;;;;;;;;;7.40;99.90;;;;;;4981106;28;19922;-67
2021/04/22 05:39:22;;;;;;;;;;;7.50;99.90;;;;;;4981602;28;19922;-67
2021/04/22 05:41:50;;;;;;;;;;;7.60;99.90;;;;;;4981072;28;19929;-68
2021/04/22 05:44:18;;;;;;;;;;;7.60;99.90;;;;;;4980948;28;20390;-66
2021/04/22 05:46:46;;;;;;;;;;;7.60;99.90;;;;;;4980205;28;19976;-66
2021/04/22 05:49:14;;;;;;;;;;;7.60;99.90;;;;;;4980541;28;19929;-67
2021/04/22 05:51:42;;;;;;;;;;;7.70;99.90;;;;;;4964075;28;19922;-66
2021/04/22 05:54:10;;;;;;;;;;;7.70;99.90;;;;;;4981316;28;20338;-67
2021/04/22 05:56:39;;;;;;;;;;;7.60;99.90;;;;;;4980531;28;19926;-67
2021/04/22 05:59:32;;;;;;;;;;;7.60;99.90;;;;;;4980628;28;19922;-67
2021/04/22 06:02:00;;;;;;;;;;;7.60;99.90;;;;;;4979628;28;19957;-69
2021/04/22 06:04:27;;;;;;;;;;;7.60;99.90;;;;;;4980535;28;19928;-67
2021/04/22 06:06:54;;;;;;;;;;;7.80;99.90;;;;;;4964095;28;19921;-66
2021/04/22 06:09:25;;;;;;;;;;;7.60;99.90;;;;;;4981318;28;19985;-67
2021/04/22 06:11:52;;;;;;;;;;;7.80;99.90;;;;;;4964662;28;20390;-68
2021/04/22 06:14:19;;;;;;;;;;;7.60;99.90;;;;;;4964025;28;19922;-67
2021/04/22 06:16:47;;;;;;;;;;;7.60;99.90;;;;;;4963764;28;20021;-66
2021/04/22 06:19:15;;;;;;;;;;;7.40;99.90;;;;;;4981883;28;20009;-67
2021/04/22 06:21:42;;;;;;;;;;;7.30;99.90;;;;;;4982847;28;19922;-67
2021/04/22 06:24:12;;;;;;;;;;;7.20;99.90;;;;;;4980473;28;19921;-70
2021/04/22 06:26:39;;;;;;;;;;;7.30;99.90;;;;;;4980804;28;20383;-68
2021/04/22 06:29:32;;;;;;;;;;;7.40;99.90;;;;;;4977854;28;20029;-65
2021/04/22 06:32:02;;;;;;;;;;;7.50;99.90;;;;;;4998965;28;20441;-68
2021/04/22 06:34:29;;;;;;;;;;;7.70;99.90;;;;;;4982048;28;19921;-70
2021/04/22 06:36:59;;;;;;;;;;;8.00;99.90;;;;;;4982354;28;19922;-68
2021/04/22 06:39:27;;;;;;;;;;;7.90;99.90;;;;;;5000565;28;19922;-66
2021/04/22 06:41:54;;;;;;;;;;;7.90;99.90;;;;;;4981999;28;19921;-69
2021/04/22 06:44:22;;;;;;;;;;;7.90;99.90;;;;;;4999133;28;19922;-70
2021/04/22 06:46:49;;;;;;;;;;;8.00;99.90;;;;;;4998423;28;19976;-70
2021/04/22 06:49:18;;;;;;;;;;;8.20;99.90;;;;;;4998043;28;19921;-68
2021/04/22 06:51:45;;;;;;;;;;;8.20;99.90;;;;;;4999577;28;19928;-67
2021/04/22 06:54:12;;;;;;;;;;;8.80;99.90;;;;;;4981922;28;19928;-65
2021/04/22 06:56:40;;;;;;;;;;;9.80;99.20;;;;;;4999717;28;19922;-66
2021/04/22 06:59:32;;;;;;;;;;;10.50;97.90;;;;;;4982738;28;19929;-67
2021/04/22 07:02:00;;;;;;;;;;;11.00;93.80;;;;;;4998172;28;19922;-67
2021/04/22 07:04:29;;;;;;;;;;;10.50;92.30;;;;;;4998847;28;19922;-67
2021/04/22 07:06:59;;;;;;;;;;;10.70;93.00;;;;;;4999241;28;19921;-67
2021/04/22 07:09:26;;;;;;;;;;;10.80;92.50;;;;;;4982159;28;19928;-67
2021/04/22 07:11:53;;;;;;;;;;;11.60;91.30;;;;;;4999913;28;19926;-68
2021/04/22 07:14:20;;;;;;;;;;;11.40;88.00;;;;;;4981710;28;19928;-66
2021/04/22 07:16:48;;;;;;;;;;;12.10;85.70;;;;;;4998491;28;19948;-69
2021/04/22 07:19:16;;;;;;;;;;;13.30;82.10;;;;;;5000153;28;19922;-65
2021/04/22 07:21:45;;;;;;;;;;;13.20;78.10;;;;;;5001060;28;19932;-69
2021/04/22 07:24:13;;;;;;;;;;;13.30;76.00;;;;;;5000519;28;20020;-67
2021/04/22 07:26:40;;;;;;;;;;;13.20;77.70;;;;;;4983311;28;19921;-67
2021/04/22 07:29:13;;;;;;;;;;;12.80;76.30;;;;;;5000245;28;19922;-67
2021/04/22 07:31:41;;;;;;;;;;;13.40;74.30;;;;;;4997710;28;19928;-67
2021/04/22 07:34:08;;;;;;;;;;;13.80;72.10;;;;;;5000217;28;19929;-66
2021/04/22 07:36:36;;;;;;;;;;;14.00;72.30;;;;;;4982120;28;19921;-66
2021/04/22 07:39:05;;;;;;;;;;;14.90;66.20;;;;;;4998756;28;19925;-66
2021/04/22 07:41:32;;;;;;;;;;;14.20;64.00;;;;;;4980940;28;19921;-66
2021/04/22 07:43:59;;;;;;;;;;;14.30;65.00;;;;;;4981450;28;19922;-67
2021/04/22 07:46:26;;;;;;;;;;;15.70;62.30;;;;;;4981482;28;19922;-69
2021/04/22 07:48:54;;;;;;;;;;;17.80;58.90;;;;;;4982960;28;19956;-70
2021/04/22 07:51:21;;;;;;;;;;;18.10;54.80;;;;;;4983306;28;19922;-65
2021/04/22 07:53:48;;;;;;;;;;;17.20;54.10;;;;;;4999769;28;19941;-65
2021/04/22 07:56:16;;;;;;;;;;;16.80;55.20;;;;;;4999799;28;20301;-65
2021/04/22 07:58:44;;;;;;;;;;;16.70;54.40;;;;;;5000361;28;19933;-66
2021/04/22 08:01:12;;;;;;;;;;;16.80;55.40;;;;;;4981560;28;19921;-67
2021/04/22 08:03:40;;;;;;;;;;;16.60;53.60;;;;;;4982261;28;19922;-65
2021/04/22 08:06:08;;;;;;;;;;;16.60;54.40;;;;;;4982300;28;20359;-66
2021/04/22 08:08:35;;;;;;;;;;;15.20;54.40;;;;;;4999194;28;19921;-69
2021/04/22 08:11:02;;;;;;;;;;;16.80;56.40;;;;;;4998686;28;19922;-68
2021/04/22 08:13:31;;;;;;;;;;;16.90;51.10;;;;;;4981961;28;19922;-66
2021/04/22 08:15:58;;;;;;;;;;;17.20;52.60;;;;;;4981769;28;19945;-66
2021/04/22 08:18:26;;;;;;;;;;;17.70;52.10;;;;;;4999488;28;19922;-66
2021/04/22 08:20:56;;;;;;;;;;;16.40;50.30;;;;;;4999818;28;20297;-68
2021/04/22 08:23:27;;;;;;;;;;;15.90;52.50;;;;;;4997731;28;20396;-74
2021/04/22 08:25:57;;;;;;;;;;;16.10;52.70;;;;;;4999185;28;19928;-72
2021/04/22 08:28:26;;;;;;;;;;;16.00;54.10;;;;;;4999421;28;19922;-66
2021/04/22 08:30:56;;;;;;;;;;;16.10;52.60;;;;;;4998262;28;19947;-66
2021/04/22 08:33:25;;;;;;;;;;;17.90;49.90;;;;;;4981272;28;19925;-66
2021/04/22 08:35:53;;;;;;;;;;;16.60;49.50;;;;;;4981930;28;19928;-69
2021/04/22 08:38:20;;;;;;;;;;;15.40;51.80;;;;;;4981662;28;19921;-66
2021/04/22 08:40:50;;;;;;;;;;;16.40;51.70;;;;;;4981888;28;20425;-66
2021/04/22 08:43:17;;;;;;;;;;;17.00;48.80;;;;;;4981285;28;20492;-66
2021/04/22 08:45:45;;;;;;;;;;;18.30;48.80;;;;;;4997971;28;20362;-68
2021/04/22 08:48:13;;;;;;;;;;;19.10;49.00;;;;;;4998956;28;19921;-65
2021/04/22 08:50:41;;;;;;;;;;;20.50;43.40;;;;;;4999068;28;20022;-68
2021/04/22 08:53:11;;;;;;;;;;;20.70;42.70;;;;;;4997534;28;19922;-65
2021/04/22 08:55:43;;;;;;;;;;;21.80;42.40;;;;;;4983278;28;20348;-65
2021/04/22 08:58:10;;;;;;;;;;;20.20;40.80;;;;;;4999773;28;19922;-67
2021/04/22 09:00:41;;;;;;;;;;;19.20;40.90;;;;;;4997597;28;19929;-65
2021/04/22 09:03:09;;;;;;;;;;;21.30;41.30;;;;;;4998520;28;19922;-73
2021/04/22 09:05:38;;;;;;;;;;;22.70;38.10;;;;;;4981355;28;19921;-66
2021/04/22 09:08:06;;;;;;;;;;;20.90;35.30;;;;;;4997889;28;19922;-67
2021/04/22 09:10:34;;;;;;;;;;;19.60;38.70;;;;;;4999752;28;20340;-65
2021/04/22 09:13:03;;;;;;;;;;;18.90;40.20;;;;;;4982000;28;20348;-68
2021/04/22 09:15:31;;;;;;;;;;;20.90;39.20;;;;;;4997406;28;19925;-67
2021/04/22 09:17:59;;;;;;;;;;;22.40;36.90;;;;;;4981585;28;20378;-66
2021/04/22 09:20:29;;;;;;;;;;;24.00;34.20;;;;;;5000497;28;19969;-64
2021/04/22 09:22:58;;;;;;;;;;;22.60;32.70;;;;;;4982896;28;19922;-66
2021/04/22 09:25:26;;;;;;;;;;;21.20;37.00;;;;;;4984232;28;19929;-70
2021/04/22 09:28:12;;;;;;;;;;;20.40;36.90;;;;;;4983601;28;20429;-66
2021/04/22 09:30:41;;;;;;;;;;;17.40;38.20;;;;;;4996800;28;19945;-66
2021/04/22 09:33:19;;;;;;;;;;;18.20;39.80;;;;;;4982217;28;19956;-66
2021/04/22 09:35:47;;;;;;;;;;;19.20;39.30;;;;;;4982687;28;20273;-65
2021/04/22 09:38:18;;;;;;;;;;;18.30;39.00;;;;;;5000086;28;20041;-64
2021/04/22 09:40:52;;;;;;;;;;;18.50;39.30;;;;;;5000136;28;19921;-69
2021/04/22 09:43:22;;;;;;;;;;;18.70;37.30;;;;;;5000255;28;19928;-64
2021/04/22 09:45:51;;;;;;;;;;;18.70;37.20;;;;;;4965399;28;19921;-67
2021/04/22 09:48:19;;;;;;;;;;;17.50;34.80;;;;;;5000033;28;19921;-65
2021/04/22 09:50:47;;;;;;;;;;;17.50;35.80;;;;;;4998153;28;20020;-65
2021/04/22 09:53:18;;;;;;;;;;;17.60;37.00;;;;;;4965669;28;20374;-65
2021/04/22 09:55:46;;;;;;;;;;;16.90;38.90;;;;;;4998252;28;19922;-65
2021/04/22 09:58:27;;;;;;;;;;;19.20;40.50;;;;;;4980837;28;19980;-65
2021/04/22 10:00:54;;;;;;;;;;;20.70;37.90;;;;;;4972862;28;19941;-66
2021/04/22 10:03:23;;;;;;;;;;;18.60;36.30;;;;;;4961690;28;20418;-65
2021/04/22 10:05:55;;;;;;;;;;;19.80;39.90;;;;;;4978907;28;19972;-64
2021/04/22 10:08:24;;;;;;;;;;;19.70;37.40;;;;;;4977990;28;20010;-66
2021/04/22 10:11:00;;;;;;;;;;;18.60;35.00;;;;;;4978349;28;19946;-66
2021/04/22 10:13:28;;;;;;;;;;;17.90;38.10;;;;;;4961503;28;19976;-67
2021/04/22 10:15:57;;;;;;;;;;;17.50;38.10;;;;;;4977288;28;19922;-70
2021/04/22 10:18:35;;;;;;;;;;;18.40;39.40;;;;;;4982136;28;20020;-67
2021/04/22 10:21:02;;;;;;;;;;;15.60;39.70;;;;;;4964544;28;19981;-66
2021/04/22 10:23:31;;;;;;;;;;;15.70;42.90;;;;;;4981951;28;19964;-66
2021/04/22 10:25:58;;;;;;;;;;;17.60;39.40;;;;;;4981997;28;19922;-66
2021/04/22 10:28:26;;;;;;;;;;;19.20;38.50;;;;;;4989204;28;19922;-66
2021/04/22 10:30:56;;;;;;;;;;;20.10;35.70;;;;;;4979488;28;19922;-66
2021/04/22 10:33:24;;;;;;;;;;;16.40;38.00;;;;;;4980984;28;20381;-70
2021/04/22 10:35:51;;;;;;;;;;;17.50;38.90;;;;;;4981090;28;20016;-66
2021/04/22 10:38:19;;;;;;;;;;;18.70;37.20;;;;;;4981174;28;19928;-66
2021/04/22 10:40:48;;;;;;;;;;;17.80;36.20;;;;;;4981355;28;20276;-71
2021/04/22 10:43:16;;;;;;;;;;;21.50;35.20;;;;;;4980122;28;19958;-66
2021/04/22 10:45:44;;;;;;;;;;;20.40;33.50;;;;;;4979776;28;19930;-66
2021/04/22 10:48:12;;;;;;;;;;;21.20;33.20;;;;;;4980729;28;19922;-69
2021/04/22 10:50:43;;;;;;;;;;;20.30;33.60;;;;;;4982004;28;20008;-69
2021/04/22 10:53:14;;;;;;;;;;;20.70;32.50;;;;;;4980699;28;19922;-66
2021/04/22 10:55:43;;;;;;;;;;;20.90;32.40;;;;;;4980234;28;20013;-65
2021/04/22 11:01:10;;;;;;;;;;;17.60;35.80;;;;;;4989681;28;19922;-66
2021/04/22 11:03:38;;;;;;;;;;;19.20;32.90;;;;;;5001203;28;20005;-67
2021/04/22 11:06:08;;;;;;;;;;;17.30;32.60;;;;;;4983454;28;20353;-66
2021/04/22 11:08:38;;;;;;;;;;;18.00;37.00;;;;;;4982906;28;19925;-66
2021/04/22 11:11:16;;;;;;;;;;;20.00;34.20;;;;;;4983029;28;19926;-66
2021/04/22 11:13:45;;;;;;;;;;;17.60;33.30;;;;;;4983317;28;19968;-66
2021/04/22 11:16:13;;;;;;;;;;;19.40;35.50;;;;;;4999572;28;19968;-66
2021/04/22 11:18:42;;;;;;;;;;;20.30;34.10;;;;;;4983161;28;19972;-66
2021/04/22 11:21:22;;;;;;;;;;;19.10;32.50;;;;;;5000415;28;19928;-67
2021/04/22 11:23:51;;;;;;;;;;;18.10;34.20;;;;;;5000352;28;19922;-65
2021/04/22 11:26:20;;;;;;;;;;;17.00;32.70;;;;;;4998938;28;20313;-66
2021/04/22 11:28:48;;;;;;;;;;;15.60;36.30;;;;;;4982719;28;19922;-66
2021/04/22 11:31:16;;;;;;;;;;;17.10;36.90;;;;;;4999345;28;19926;-66
2021/04/22 11:33:45;;;;;;;;;;;15.80;36.50;;;;;;5000279;28;20352;-67
2021/04/22 11:36:14;;;;;;;;;;;17.80;37.20;;;;;;4998422;28;20096;-71
2021/04/22 11:38:52;;;;;;;;;;;17.30;37.00;;;;;;4999409;28;19929;-66
2021/04/22 11:41:20;;;;;;;;;;;18.30;36.80;;;;;;4981884;28;19960;-66
2021/04/22 11:43:58;;;;;;;;;;;18.40;36.70;;;;;;4999433;28;19944;-66
2021/04/22 11:46:32;;;;;;;;;;;18.90;35.60;;;;;;4998937;28;19921;-69
2021/04/22 11:48:59;;;;;;;;;;;18.30;37.10;;;;;;4999716;28;19922;-68
2021/04/22 11:51:33;;;;;;;;;;;16.70;39.40;;;;;;4982898;28;19926;-66
2021/04/22 11:54:00;;;;;;;;;;;16.50;38.80;;;;;;4999713;28;19928;-66
2021/04/22 11:56:28;;;;;;;;;;;16.80;39.50;;;;;;4998589;28;19929;-66
2021/04/22 11:58:56;;;;;;;;;;;16.30;39.80;;;;;;4982570;28;19926;-71
2021/04/22 12:01:23;;;;;;;;;;;16.90;40.90;;;;;;4997217;28;19922;-67
2021/04/22 12:03:51;;;;;;;;;;;16.90;39.60;;;;;;4998938;28;20413;-66
2021/04/22 12:06:21;;;;;;;;;;;16.90;40.70;;;;;;4998558;28;19921;-68
2021/04/22 12:08:49;;;;;;;;;;;15.50;41.70;;;;;;4997353;28;19922;-67
2021/04/22 12:11:19;;;;;;;;;;;15.40;42.40;;;;;;4998528;28;19929;-69
2021/04/22 12:13:46;;;;;;;;;;;15.70;42.80;;;;;;4997739;28;19921;-66
2021/04/22 12:16:15;;;;;;;;;;;16.30;42.50;;;;;;4995766;28;19929;-67
2021/04/22 12:18:43;;;;;;;;;;;15.80;40.20;;;;;;4999245;28;19922;-67
2021/04/22 12:21:12;;;;;;;;;;;16.50;39.10;;;;;;4999586;28;19922;-66
2021/04/22 12:23:48;;;;;;;;;;;16.80;38.10;;;;;;4998275;28;19933;-66
2021/04/22 12:26:20;;;;;;;;;;;17.70;35.00;;;;;;4997200;28;20423;-66
2021/04/22 12:28:51;;;;;;;;;;;16.80;34.20;;;;;;4981352;28;19932;-67
2021/04/22 12:31:27;;;;;;;;;;;17.50;33.60;;;;;;4995943;28;20456;-66
2021/04/22 12:33:55;;;;;;;;;;;17.40;34.00;;;;;;4997436;28;19933;-71
2021/04/22 12:36:23;;;;;;;;;;;16.10;34.60;;;;;;4997445;28;19932;-66
2021/04/22 12:38:50;;;;;;;;;;;15.50;35.90;;;;;;4980897;28;19956;-66
2021/04/22 12:41:20;;;;;;;;;;;14.60;37.00;;;;;;4997224;28;20024;-67
2021/04/22 12:43:48;;;;;;;;;;;14.10;37.50;;;;;;4981377;28;19952;-71
2021/04/22 12:46:16;;;;;;;;;;;14.20;38.60;;;;;;4997155;28;19930;-67
2021/04/22 12:48:52;;;;;;;;;;;14.20;38.50;;;;;;4997180;28;19929;-69
2021/04/22 12:51:19;;;;;;;;;;;14.30;39.20;;;;;;4980887;28;19949;-70
2021/04/22 12:53:47;;;;;;;;;;;14.60;39.70;;;;;;4980755;28;19976;-68
2021/04/22 12:56:15;;;;;;;;;;;14.90;39.90;;;;;;4998905;28;20353;-67
2021/04/22 12:58:45;;;;;;;;;;;14.80;40.80;;;;;;4981208;28;19964;-67
2021/04/22 13:01:15;;;;;;;;;;;15.10;40.80;;;;;;4976008;28;19927;-68
2021/04/22 13:03:44;;;;;;;;;;;15.30;38.30;;;;;;4978449;28;19926;-66
2021/04/22 13:06:12;;;;;;;;;;;15.00;37.50;;;;;;4978462;28;20306;-69
2021/04/22 13:08:41;;;;;;;;;;;15.20;36.40;;;;;;4977825;28;19973;-67
2021/04/22 13:11:11;;;;;;;;;;;15.20;39.00;;;;;;4977865;28;19926;-67
2021/04/22 13:13:40;;;;;;;;;;;15.00;38.80;;;;;;4978153;28;19926;-67
2021/04/22 13:16:09;;;;;;;;;;;14.80;39.50;;;;;;4986737;28;19925;-67
2021/04/22 13:18:38;;;;;;;;;;;16.00;39.00;;;;;;4981698;28;19926;-67
2021/04/22 13:21:13;;;;;;;;;;;17.30;36.70;;;;;;4998388;28;20025;-66
2021/04/22 13:23:41;;;;;;;;;;;17.00;36.50;;;;;;4996847;28;19926;-69
2021/04/22 13:26:16;;;;;;;;;;;15.70;37.70;;;;;;4997942;28;19925;-72
2021/04/22 13:28:44;;;;;;;;;;;15.10;39.30;;;;;;4997560;28;19949;-67
2021/04/22 13:31:13;;;;;;;;;;;15.10;40.30;;;;;;4996672;28;19926;-67
2021/04/22 13:33:41;;;;;;;;;;;15.40;40.80;;;;;;4997984;28;19933;-65
2021/04/22 13:36:15;;;;;;;;;;;15.80;39.90;;;;;;4980704;28;19926;-69
2021/04/22 13:38:44;;;;;;;;;;;15.70;39.80;;;;;;4998084;28;19925;-69
2021/04/22 13:41:13;;;;;;;;;;;17.70;38.90;;;;;;4997122;28;19933;-68
2021/04/22 13:43:51;;;;;;;;;;;18.40;38.20;;;;;;4980777;28;20349;-67
2021/04/22 13:46:19;;;;;;;;;;;18.40;36.80;;;;;;4980427;28;20017;-66
2021/04/22 13:48:46;;;;;;;;;;;18.80;36.60;;;;;;4997188;28;19930;-65
2021/04/22 13:51:14;;;;;;;;;;;19.00;36.30;;;;;;4999456;28;19925;-66
2021/04/22 13:53:43;;;;;;;;;;;17.30;37.20;;;;;;5002690;28;20382;-68
2021/04/22 13:56:10;;;;;;;;;;;16.20;37.40;;;;;;4985237;28;20013;-65
2021/04/22 13:58:39;;;;;;;;;;;15.90;38.40;;;;;;4987151;28;19929;-69
2021/04/22 14:01:08;;;;;;;;;;;15.60;38.70;;;;;;4984933;28;19965;-67
2021/04/22 14:03:37;;;;;;;;;;;15.80;39.40;;;;;;4984714;28;19933;-69
2021/04/22 14:06:06;;;;;;;;;;;16.20;39.10;;;;;;5000746;28;19936;-66
2021/04/22 14:08:34;;;;;;;;;;;16.80;38.40;;;;;;4985776;28;20361;-68
2021/04/22 14:11:12;;;;;;;;;;;16.60;39.00;;;;;;4985598;28;19949;-66
2021/04/22 14:13:40;;;;;;;;;;;16.50;40.60;;;;;;5004258;28;20341;-66
2021/04/22 14:16:08;;;;;;;;;;;15.80;40.00;;;;;;4984638;28;20038;-68
2021/04/22 14:18:36;;;;;;;;;;;15.90;41.20;;;;;;5001534;28;19929;-66
2021/04/22 14:21:04;;;;;;;;;;;16.40;41.50;;;;;;5003509;28;20020;-70
2021/04/22 14:23:32;;;;;;;;;;;16.50;41.90;;;;;;4985547;28;19926;-66
2021/04/22 14:25:59;;;;;;;;;;;16.40;40.50;;;;;;5002326;28;19949;-66
2021/04/22 14:28:28;;;;;;;;;;;16.20;39.70;;;;;;4984440;28;20390;-66
2021/04/22 14:30:55;;;;;;;;;;;16.40;39.30;;;;;;4983731;28;20014;-65
2021/04/22 14:33:23;;;;;;;;;;;16.80;39.40;;;;;;4984023;28;20366;-72
2021/04/22 14:35:50;;;;;;;;;;;16.70;39.20;;;;;;4983831;28;19926;-64
2021/04/22 14:38:18;;;;;;;;;;;18.30;40.20;;;;;;5001456;28;20350;-69
2021/04/22 14:40:45;;;;;;;;;;;18.00;36.20;;;;;;5001041;28;20424;-71